Aérodrome :
LOGIN :

S'inscrire | Disclaimer

   EN    FR    IT 

 










Légende :    VFR   VFR Marginal   IFR   IFR Intensif   IFR Très Intensif
Visi : 
Plafond : 
>= 8 km
>= 3000ft
5 à 8 km
1000 à 3000 ft
1500m à 5 km
500 à 1000 ft
800 à 1500m
200 à 500 ft
< 800m
< 200 ft
Symboles :   Orages  Brouillard  Fortes neiges  Fortes précipitations  Vent > 20 kt
SIGMETs :   Divers  Orages  Givrage  Turbulence  Onde Orograph.  Cendres Volcan.






- Altitude de l'aérodrome : 183 ft
- Code IATA : HAJ


EDDV - Hanover/Langenhagen Int.

DERNIER METAR :
  • 282350Z AUTO VRB02KT 9999 -RA NSC 14/11 Q1014

METARs EXPIRÉS :
  • 282320Z AUTO VRB02KT 9999 -RA NSC 14/11 Q1014
  • 282250Z AUTO 20005KT 170V230 9999 -RA NSC 14/09 Q1015
  • 282220Z AUTO 19006KT 150V220 CAVOK 15/08 Q1015
  • 282150Z AUTO 17006KT 140V200 CAVOK 16/08 Q1015
  • 282120Z AUTO 16004KT 120V200 CAVOK 16/08 Q1015
  • 282050Z AUTO 16004KT 120V190 CAVOK 16/08 Q1015 NOSIG
  • 282020Z AUTO 15003KT 090V180 CAVOK 16/08 Q1016 NOSIG
  • 281950Z AUTO 16003KT 130V190 CAVOK 16/07 Q1016 NOSIG
  • 281920Z AUTO 18004KT CAVOK 16/07 Q1016 NOSIG

TAF TAF EDDV
Valide du 29 à 00h jusqu'au 30 à 00h UTC


282300Z 2900/2924 18005KT 9999 BKN040
PROB30
TEMPO 2900/2902 RA
BECMG 2903/2905 20010KT
PROB30
TEMPO 2907/2911 RA BKN012
TEMPO 2911/2921 SHRA BKN015CB
PROB30
TEMPO 2914/2918 21015G25KT 4000 TSRA BKN012CB
BECMG 2916/2918 23005KT
BECMG 2921/2923 VRB03KT



MET'MAP, la Météo Aéronautique d'un coup d'oeil ! - Copyright ORBIFLY Décembre 2007 - Disclaimer

ORBIFLY MET'MAP TEAM :

Programmation & Développement : Alexandra Zaïnal
Sur une idée originale de : Baudouin d'Aumeries
Soutien technique & logistique : Manuel Goepfert
Assistance : Marc-Olivier Méhu




SOURCES & CREDITS :

   NOAA